Time;durP1;ratioP1;P1;durP2;ratioP2;P2;SDS_P1;SDS_P2;PMS_P1;PMS_P2;Temp;Humidity;BMP_temperature;BMP_pressure;BME280_temperature;BME280_humidity;BME280_pressure;Samples;Min_cycle;Max_cycle;Signal;HPM_P1;HPM_P2
2022/03/03 00:02:09;;;;;;;9.23;4.65;;;;;;;1.98;100.00;98355.91;5112012;28;20429;-62
2022/03/03 00:04:36;;;;;;;6.60;3.85;;;;;;;2.01;100.00;98343.66;5112270;28;20047;-63
2022/03/03 00:07:02;;;;;;;12.00;4.00;;;;;;;2.00;100.00;98345.56;5111733;28;20053;-62
2022/03/03 00:09:28;;;;;;;7.32;3.70;;;;;;;1.96;100.00;98350.00;5111931;28;20063;-63
2022/03/03 00:11:55;;;;;;;6.65;3.75;;;;;;;1.92;100.00;98356.41;5111618;28;20514;-63
2022/03/03 00:14:21;;;;;;;8.20;4.13;;;;;;;1.94;100.00;98368.50;5111676;28;20521;-62
2022/03/03 00:16:48;;;;;;;8.73;3.67;;;;;;;2.01;100.00;98355.25;5111606;28;20048;-62
2022/03/03 00:19:14;;;;;;;8.35;4.18;;;;;;;2.03;100.00;98347.63;5111478;28;20056;-63
2022/03/03 00:21:41;;;;;;;7.10;3.33;;;;;;;2.06;100.00;98346.13;5111649;28;20058;-63
2022/03/03 00:24:07;;;;;;;7.57;4.35;;;;;;;2.10;100.00;98328.16;5111351;28;20097;-63
2022/03/03 00:26:33;;;;;;;8.43;3.65;;;;;;;2.11;100.00;98329.72;5111365;28;20044;-62
2022/03/03 00:28:59;;;;;;;10.98;3.85;;;;;;;2.07;100.00;98328.81;5111313;28;20073;-62
2022/03/03 00:31:26;;;;;;;7.22;3.60;;;;;;;2.07;100.00;98331.53;5111594;28;20055;-63
2022/03/03 00:33:53;;;;;;;5.78;3.60;;;;;;;2.07;100.00;98328.81;5111196;28;20052;-63
2022/03/03 00:36:19;;;;;;;6.45;3.65;;;;;;;1.99;100.00;98329.66;5111193;28;20058;-62
2022/03/03 00:38:45;;;;;;;12.80;5.03;;;;;;;1.90;100.00;98340.53;5111175;28;20047;-63
2022/03/03 00:41:11;;;;;;;10.10;3.70;;;;;;;1.79;100.00;98372.53;5111329;28;20044;-62
2022/03/03 00:43:38;;;;;;;5.10;3.10;;;;;;;1.80;100.00;98400.34;5111114;28;20054;-63
2022/03/03 00:46:04;;;;;;;5.50;3.30;;;;;;;1.80;100.00;98430.06;5111162;28;20043;-62
2022/03/03 00:48:30;;;;;;;5.38;2.83;;;;;;;1.75;100.00;98435.66;5111215;28;20101;-62
2022/03/03 00:50:57;;;;;;;4.65;3.05;;;;;;;1.55;100.00;98469.59;5110879;28;20058;-62
2022/03/03 00:53:23;;;;;;;7.65;3.15;;;;;;;1.59;100.00;98513.75;5110987;28;20048;-62
2022/03/03 00:55:50;;;;;;;7.45;3.40;;;;;;;1.64;100.00;98533.31;5111308;28;20051;-62
2022/03/03 00:58:16;;;;;;;7.63;2.95;;;;;;;1.61;100.00;98555.56;5111127;28;20112;-62
2022/03/03 01:00:42;;;;;;;5.75;3.00;;;;;;;1.72;100.00;98566.03;5110701;28;20520;-62
2022/03/03 01:03:08;;;;;;;9.52;3.25;;;;;;;1.76;100.00;98589.38;5111234;28;20048;-62
2022/03/03 01:05:35;;;;;;;7.30;3.28;;;;;;;1.77;100.00;98614.50;5110779;28;20560;-62
2022/03/03 01:08:02;;;;;;;5.82;2.65;;;;;;;1.76;100.00;98634.53;5110814;28;20047;-62
2022/03/03 01:10:29;;;;;;;5.30;2.95;;;;;;;1.65;100.00;98656.47;5111262;28;20560;-63
2022/03/03 01:12:55;;;;;;;8.52;2.80;;;;;;;1.58;100.00;98696.69;5110694;28;20051;-62
2022/03/03 01:15:22;;;;;;;6.47;3.17;;;;;;;1.57;100.00;98757.25;5110761;28;20498;-63
2022/03/03 01:17:48;;;;;;;7.32;2.90;;;;;;;1.52;100.00;98829.53;5110548;28;20043;-63
2022/03/03 01:20:14;;;;;;;6.15;2.80;;;;;;;1.47;100.00;98898.00;5110647;28;20048;-62
2022/03/03 01:22:40;;;;;;;8.73;2.90;;;;;;;1.49;100.00;98963.31;5110817;28;20047;-63
2022/03/03 01:25:08;;;;;;;5.65;2.95;;;;;;;1.49;100.00;99019.25;5110898;28;20415;-62
2022/03/03 01:27:34;;;;;;;7.78;3.50;;;;;;;1.42;100.00;99062.91;5110337;28;20054;-62
2022/03/03 01:30:02;;;;;;;5.07;2.67;;;;;;;1.45;100.00;99121.72;5110584;28;20043;-63
2022/03/03 01:32:28;;;;;;;4.82;3.05;;;;;;;1.36;100.00;99162.16;5110395;28;20142;-62
2022/03/03 01:34:54;;;;;;;5.60;3.00;;;;;;;1.35;100.00;99227.31;5110461;28;20058;-62
2022/03/03 01:37:21;;;;;;;5.47;3.10;;;;;;;1.30;100.00;99259.81;5110277;28;20051;-62
2022/03/03 01:39:47;;;;;;;6.68;2.97;;;;;;;1.22;100.00;99282.94;5110579;28;20052;-63
2022/03/03 01:42:14;;;;;;;6.60;3.22;;;;;;;1.26;100.00;99310.94;5110282;28;20395;-62
2022/03/03 01:44:42;;;;;;;6.80;3.55;;;;;;;1.32;100.00;99347.53;5110330;28;20100;-63
2022/03/03 01:47:16;;;;;;;5.93;3.30;;;;;;;1.38;100.00;99373.38;5110344;28;20044;-63
2022/03/03 01:49:42;;;;;;;7.97;3.55;;;;;;;1.34;100.00;99380.47;5110789;28;20793;-63
2022/03/03 01:52:09;;;;;;;8.98;3.65;;;;;;;1.35;100.00;99387.47;5110605;28;20503;-63
2022/03/03 01:54:35;;;;;;;4.40;2.70;;;;;;;1.30;100.00;99392.97;5110156;28;20048;-63
2022/03/03 01:57:02;;;;;;;4.90;2.88;;;;;;;1.29;100.00;99401.38;5110236;28;20051;-63
2022/03/03 01:59:30;;;;;;;11.40;3.72;;;;;;;1.27;100.00;99398.97;5109523;28;20051;-62
2022/03/03 02:01:57;;;;;;;6.97;3.08;;;;;;;1.26;100.00;99418.16;5115105;28;20047;-62
2022/03/03 02:04:23;;;;;;;9.75;3.65;;;;;;;1.22;100.00;99415.25;5117047;28;20051;-63
2022/03/03 02:06:49;;;;;;;8.70;4.18;;;;;;;1.12;100.00;99413.53;5116833;28;20050;-63
2022/03/03 02:09:16;;;;;;;11.43;3.70;;;;;;;1.15;100.00;99425.66;5116681;28;20138;-63
2022/03/03 02:11:46;;;;;;;6.32;3.10;;;;;;;1.17;100.00;99426.16;5116629;28;20050;-63
2022/03/03 02:14:12;;;;;;;7.88;3.35;;;;;;;1.23;100.00;99424.16;5116859;28;20434;-63
2022/03/03 02:16:39;;;;;;;7.43;3.42;;;;;;;1.23;100.00;99437.66;5116998;28;20104;-62
2022/03/03 02:19:06;;;;;;;6.13;3.72;;;;;;;1.20;100.00;99425.56;5117240;28;20116;-62
2022/03/03 02:21:33;;;;;;;8.57;3.75;;;;;;;1.22;100.00;99425.25;5116842;28;20143;-63
2022/03/03 02:24:00;;;;;;;8.95;2.90;;;;;;;1.16;100.00;99419.13;5116777;28;20495;-62
2022/03/03 02:26:26;;;;;;;8.98;3.08;;;;;;;1.10;100.00;99409.50;5116874;28;20146;-63
2022/03/03 02:28:53;;;;;;;7.40;3.38;;;;;;;1.10;100.00;99406.81;5116757;28;20051;-62
2022/03/03 02:31:20;;;;;;;7.97;3.60;;;;;;;1.06;100.00;99398.50;5116611;28;20434;-62
2022/03/03 02:33:47;;;;;;;6.05;3.53;;;;;;;1.01;100.00;99405.91;5116455;28;20058;-62
2022/03/03 02:36:21;;;;;;;6.85;3.58;;;;;;;1.03;100.00;99426.09;5116474;28;20047;-62
2022/03/03 02:38:50;;;;;;;10.00;3.70;;;;;;;1.06;100.00;99441.72;5116200;28;20047;-63
2022/03/03 02:41:17;;;;;;;9.15;3.72;;;;;;;1.11;100.00;99440.84;5116371;28;20481;-62
2022/03/03 02:43:43;;;;;;;8.27;3.60;;;;;;;1.12;100.00;99440.53;5116129;28;20047;-63
2022/03/03 02:46:10;;;;;;;6.25;3.40;;;;;;;1.06;100.00;99452.50;5116300;28;20043;-62
2022/03/03 02:48:36;;;;;;;6.70;3.30;;;;;;;0.97;100.00;99448.91;5116491;28;20070;-63
2022/03/03 02:51:03;;;;;;;6.70;3.53;;;;;;;0.96;100.00;99454.56;5116382;28;20048;-63
2022/03/03 02:53:30;;;;;;;7.57;3.20;;;;;;;1.02;100.00;99459.59;5116062;28;20052;-62
2022/03/03 02:55:57;;;;;;;8.23;2.88;;;;;;;1.11;100.00;99454.34;5116448;28;20048;-63
2022/03/03 02:58:24;;;;;;;10.48;3.65;;;;;;;1.12;100.00;99448.63;5116076;28;20051;-62
2022/03/03 03:00:50;;;;;;;5.80;3.38;;;;;;;1.11;100.00;99446.25;5115909;28;20051;-63
2022/03/03 03:03:18;;;;;;;6.20;3.67;;;;;;;1.04;100.00;99440.41;5116044;28;20057;-62
2022/03/03 03:05:45;;;;;;;7.00;3.42;;;;;;;0.92;100.00;99436.25;5116121;28;20130;-63
2022/03/03 03:08:12;;;;;;;7.20;3.60;;;;;;;0.94;100.00;99435.97;5116031;28;20542;-63
2022/03/03 03:10:39;;;;;;;8.50;3.47;;;;;;;0.90;100.00;99424.97;5116080;28;20104;-62
2022/03/03 03:13:07;;;;;;;7.00;3.35;;;;;;;0.93;100.00;99420.88;5113033;28;20138;-63
2022/03/03 03:15:35;;;;;;;5.30;3.10;;;;;;;0.96;100.00;99414.88;5112797;28;20058;-62
2022/03/03 03:18:09;;;;;;;6.22;3.20;;;;;;;0.98;100.00;99407.28;5112726;28;20058;-62
2022/03/03 03:20:35;;;;;;;11.05;3.15;;;;;;;1.00;100.00;99409.69;5112630;28;20464;-62
2022/03/03 03:23:01;;;;;;;6.97;3.53;;;;;;;0.96;100.00;99408.69;5112558;28;20094;-62
2022/03/03 03:25:27;;;;;;;6.13;3.70;;;;;;;0.99;100.00;99398.09;5112407;28;20047;-63
2022/03/03 03:27:54;;;;;;;8.23;3.50;;;;;;;0.99;100.00;99392.69;5112654;28;20051;-62
2022/03/03 03:30:20;;;;;;;6.13;3.60;;;;;;;0.96;100.00;99395.19;5112393;28;20047;-62
2022/03/03 03:32:47;;;;;;;6.75;3.20;;;;;;;0.99;100.00;99386.50;5112252;28;20047;-62
2022/03/03 03:35:13;;;;;;;7.63;3.55;;;;;;;0.98;100.00;99380.31;5112324;28;20051;-62
2022/03/03 03:37:39;;;;;;;8.45;3.30;;;;;;;0.94;100.00;99379.28;5112133;28;20117;-62
2022/03/03 03:40:07;;;;;;;7.60;3.38;;;;;;;0.96;100.00;99376.28;5112200;28;20414;-62
2022/03/03 03:42:34;;;;;;;6.93;3.45;;;;;;;0.99;100.00;99373.00;5112160;28;20498;-62
2022/03/03 03:45:00;;;;;;;8.90;3.55;;;;;;;0.94;100.00;99366.59;5112229;28;20060;-62
2022/03/03 03:47:27;;;;;;;5.05;3.55;;;;;;;0.92;100.00;99355.28;5112047;28;20429;-62
2022/03/03 03:49:53;;;;;;;8.75;3.20;;;;;;;0.89;100.00;99352.38;5112203;28;20101;-62
2022/03/03 03:52:20;;;;;;;8.65;3.80;;;;;;;0.88;100.00;99354.28;5111809;28;20051;-62
2022/03/03 03:54:46;;;;;;;8.40;3.35;;;;;;;0.91;100.00;99345.59;5112104;28;20054;-62
2022/03/03 03:57:12;;;;;;;6.50;3.45;;;;;;;0.93;100.00;99342.59;5111858;28;20044;-62
2022/03/03 03:59:38;;;;;;;7.72;3.20;;;;;;;0.90;100.00;99346.69;5111528;28;20054;-62
2022/03/03 04:02:05;;;;;;;6.85;3.60;;;;;;;0.92;100.00;99332.88;5111835;28;20092;-62
2022/03/03 04:04:31;;;;;;;7.93;3.22;;;;;;;0.92;100.00;99332.88;5111922;28;20108;-62
2022/03/03 04:06:58;;;;;;;7.03;3.72;;;;;;;0.96;100.00;99330.41;5111699;28;20054;-62
2022/03/03 04:09:24;;;;;;;6.85;3.88;;;;;;;0.97;100.00;99326.59;5112017;28;20502;-62
2022/03/03 04:11:50;;;;;;;7.38;3.60;;;;;;;0.98;100.00;99317.41;5111748;28;20050;-62
2022/03/03 04:14:16;;;;;;;7.60;3.92;;;;;;;0.96;100.00;99316.91;5111979;28;20138;-62
2022/03/03 04:16:43;;;;;;;9.50;3.67;;;;;;;0.96;100.00;99314.19;5112108;28;20048;-62
2022/03/03 04:19:09;;;;;;;9.55;3.67;;;;;;;0.95;100.00;99316.09;5111809;28;20166;-62
2022/03/03 04:21:36;;;;;;;7.65;3.67;;;;;;;0.93;100.00;99312.88;5111620;28;20063;-62
2022/03/03 04:24:02;;;;;;;8.13;3.85;;;;;;;0.94;100.00;99309.91;5111643;28;20047;-62
2022/03/03 04:26:29;;;;;;;12.23;4.63;;;;;;;0.97;100.00;99310.38;5111560;28;20083;-62
2022/03/03 04:28:55;;;;;;;11.30;4.07;;;;;;;0.97;100.00;99307.69;5111419;28;20431;-62
2022/03/03 04:31:21;;;;;;;8.93;4.03;;;;;;;0.93;100.00;99304.78;5111438;28;20051;-62
2022/03/03 04:33:47;;;;;;;15.73;4.30;;;;;;;0.96;100.00;99292.59;5111214;28;20052;-62
2022/03/03 04:36:14;;;;;;;8.38;3.90;;;;;;;0.89;100.00;99301.88;5111633;28;20044;-62
2022/03/03 04:38:41;;;;;;;8.88;4.32;;;;;;;0.89;100.00;99295.69;5111359;28;20054;-62
2022/03/03 04:41:08;;;;;;;9.82;3.92;;;;;;;0.84;100.00;99291.19;5111284;28;20142;-62
2022/03/03 04:43:34;;;;;;;7.72;4.40;;;;;;;0.77;100.00;99288.09;5111285;28;20051;-62
2022/03/03 04:46:00;;;;;;;11.40;4.72;;;;;;;0.73;100.00;99280.88;5111116;28;20553;-62
2022/03/03 04:48:29;;;;;;;7.63;4.25;;;;;;;0.72;100.00;99274.66;5111233;28;20059;-62
2022/03/03 04:50:57;;;;;;;7.57;4.30;;;;;;;0.72;100.00;99273.88;5111278;28;20422;-62
2022/03/03 04:53:23;;;;;;;12.68;4.30;;;;;;;0.78;100.00;99262.69;5110929;28;20430;-62
2022/03/03 04:55:50;;;;;;;13.05;4.80;;;;;;;0.84;100.00;99249.91;5111112;28;20052;-63
2022/03/03 04:58:17;;;;;;;7.03;4.05;;;;;;;0.81;100.00;99259.41;5110976;28;20062;-63
2022/03/03 05:00:43;;;;;;;9.02;4.68;;;;;;;0.77;100.00;99260.28;5110200;28;20047;-63
2022/03/03 05:03:09;;;;;;;11.23;4.20;;;;;;;0.74;100.00;99261.69;5110502;28;20135;-63
2022/03/03 05:05:36;;;;;;;11.35;4.65;;;;;;;0.73;100.00;99260.06;5110167;28;20043;-69
2022/03/03 05:08:02;;;;;;;9.18;4.15;;;;;;;0.74;100.00;99253.59;5110428;28;20514;-64
2022/03/03 05:10:28;;;;;;;9.95;4.30;;;;;;;0.72;100.00;99249.59;5110344;28;20054;-64
2022/03/03 05:12:55;;;;;;;9.48;4.40;;;;;;;0.76;100.00;99245.19;5110719;28;20051;-65
2022/03/03 05:15:22;;;;;;;6.95;3.70;;;;;;;0.77;100.00;99241.38;5116463;28;20463;-65
2022/03/03 05:17:48;;;;;;;13.25;5.25;;;;;;;0.73;100.00;99241.19;5131050;28;20047;-64
2022/03/03 05:20:14;;;;;;;10.27;4.40;;;;;;;0.70;100.00;99247.19;5130947;28;20054;-66
2022/03/03 05:22:41;;;;;;;9.98;4.70;;;;;;;0.79;100.00;99237.31;5130815;28;20053;-68
2022/03/03 05:25:10;;;;;;;5.80;4.28;;;;;;;0.80;100.00;99225.44;5130850;28;20054;-68
2022/03/03 05:27:36;;;;;;;8.55;4.60;;;;;;;0.99;100.00;99221.81;5130644;28;20051;-70
2022/03/03 05:30:04;;;;;;;16.17;5.10;;;;;;;0.98;100.00;99226.44;5130670;28;20054;-68
2022/03/03 05:32:30;;;;;;;10.68;4.40;;;;;;;1.05;100.00;99232.22;5130540;28;20370;-68
2022/03/03 05:34:57;;;;;;;12.98;4.50;;;;;;;1.20;100.00;99231.13;5121126;27;20141;-65
2022/03/03 05:37:24;;;;;;;9.50;4.57;;;;;;;1.12;100.00;99239.91;5127850;28;20073;-65
2022/03/03 05:39:51;;;;;;;9.23;4.18;;;;;;;1.17;100.00;99251.44;5122966;28;20054;-65
2022/03/03 05:42:19;;;;;;;10.52;5.13;;;;;;;1.13;100.00;99252.31;5132967;27;20046;-65
2022/03/03 05:44:46;;;;;;;9.65;4.35;;;;;;;1.10;100.00;99263.72;5151086;27;20057;-66
2022/03/03 05:47:14;;;;;;;7.10;4.55;;;;;;;1.13;100.00;99269.34;5142655;27;20055;-65
2022/03/03 05:49:41;;;;;;;9.27;4.05;;;;;;;1.20;100.00;99273.50;5109584;28;20142;-66
2022/03/03 05:52:08;;;;;;;9.27;4.25;;;;;;;1.22;100.00;99276.72;5109556;28;20511;-65
2022/03/03 05:54:34;;;;;;;8.55;4.35;;;;;;;1.25;100.00;99287.72;5127854;28;20549;-65
2022/03/03 05:57:02;;;;;;;12.50;4.03;;;;;;;1.21;100.00;99292.13;5130139;28;20055;-65
2022/03/03 05:59:32;;;;;;;8.32;4.22;;;;;;;1.13;100.00;99304.44;5129834;28;20088;-65
2022/03/03 06:01:59;;;;;;;11.82;4.57;;;;;;;1.17;100.00;99305.44;5129764;28;20104;-65
2022/03/03 06:04:28;;;;;;;9.95;4.28;;;;;;;1.36;100.00;99310.72;5135164;27;20057;-65
2022/03/03 06:07:00;;;;;;;9.75;4.70;;;;;;;1.34;100.00;99320.25;5134789;27;20571;-65
2022/03/03 06:09:31;;;;;;;7.25;4.15;;;;;;;1.45;100.00;99326.25;5130538;28;20062;-65
2022/03/03 06:12:04;;;;;;;8.98;4.40;;;;;;;1.46;100.00;99336.75;5129988;28;20069;-65
2022/03/03 06:14:37;;;;;;;11.43;6.28;;;;;;;1.55;100.00;99326.06;5126177;28;20048;-65
2022/03/03 06:17:04;;;;;;;8.73;3.80;;;;;;;1.54;100.00;99329.84;5108987;28;20113;-69
2022/03/03 06:19:41;;;;;;;8.80;4.22;;;;;;;1.51;100.00;99339.38;5109746;28;20048;-67
2022/03/03 06:22:08;;;;;;;10.30;4.25;;;;;;;1.55;100.00;99334.94;5109600;28;20427;-64
2022/03/03 06:24:34;;;;;;;8.90;3.90;;;;;;;1.52;100.00;99334.75;5112809;28;20413;-62
2022/03/03 06:27:01;;;;;;;15.75;4.47;;;;;;;1.53;100.00;99341.75;5130197;28;20051;-63
2022/03/03 06:29:27;;;;;;;8.60;4.43;;;;;;;1.45;100.00;99339.75;5130382;28;20094;-64
2022/03/03 06:31:53;;;;;;;15.32;4.68;;;;;;;1.46;100.00;99344.06;5130288;28;20050;-63
2022/03/03 06:34:20;;;;;;;13.90;4.40;;;;;;;1.51;100.00;99339.38;5128598;28;20100;-66
2022/03/03 06:36:47;;;;;;;7.93;3.60;;;;;;;1.63;100.00;99344.25;5109046;28;20079;-69
2022/03/03 06:39:14;;;;;;;12.35;4.53;;;;;;;1.66;100.00;99349.06;5108934;28;20059;-66
2022/03/03 06:41:40;;;;;;;8.07;3.60;;;;;;;2.20;100.00;99336.56;5115822;28;20051;-67
2022/03/03 06:44:07;;;;;;;6.43;3.92;;;;;;;2.17;100.00;99345.28;5129817;28;20077;-66
2022/03/03 06:46:34;;;;;;;5.57;2.90;;;;;;;2.02;100.00;99351.81;5129857;27;20057;-65
2022/03/03 06:49:00;;;;;;;9.55;3.75;;;;;;;1.72;100.00;99337.03;5132939;28;20062;-66
2022/03/03 06:51:29;;;;;;;7.22;3.67;;;;;;;1.68;100.00;99336.06;5131818;28;20054;-65
2022/03/03 06:54:03;;;;;;;8.38;3.47;;;;;;;1.52;100.00;99340.16;5126718;28;20047;-65
2022/03/03 06:56:30;;;;;;;8.40;3.55;;;;;;;1.55;100.00;99348.47;5112286;28;20425;-64
2022/03/03 06:59:00;;;;;;;7.90;3.40;;;;;;;1.55;100.00;99353.88;5112695;28;20403;-64
2022/03/03 07:01:28;;;;;;;10.00;3.70;;;;;;;1.60;100.00;99353.78;5131074;28;20250;-65
2022/03/03 07:03:56;;;;;;;9.13;4.15;;;;;;;1.54;100.00;99354.19;5129684;28;20055;-66
2022/03/03 07:06:23;;;;;;;8.85;3.63;;;;;;;1.56;100.00;99346.56;5112183;28;20079;-66
2022/03/03 07:08:53;;;;;;;7.70;3.78;;;;;;;1.54;100.00;99340.66;5112468;28;20056;-66
2022/03/03 07:11:22;;;;;;;6.60;3.60;;;;;;;1.69;100.00;99340.34;5112281;28;20070;-64
2022/03/03 07:13:48;;;;;;;11.00;4.47;;;;;;;1.67;100.00;99334.47;5117817;28;20371;-64
2022/03/03 07:16:22;;;;;;;10.27;4.10;;;;;;;1.58;100.00;99341.66;5133027;28;20047;-64
2022/03/03 07:18:49;;;;;;;;;;;;;;;1.35;100.00;99338.06;5133025;28;20058;-64
2022/03/03 07:21:32;;;;;;;9.25;3.92;;;;;;;1.45;100.00;99331.66;5132830;28;19924;-65
2022/03/03 07:24:03;;;;;;;4.28;2.65;;;;;;;1.49;100.00;99328.03;5130580;28;20047;-69
2022/03/03 07:26:32;;;;;;;5.25;3.88;;;;;;;1.54;100.00;99330.66;5132402;28;20126;-67
2022/03/03 07:29:01;;;;;;;7.07;3.28;;;;;;;1.69;100.00;99329.53;5132543;28;20092;-65
2022/03/03 07:31:31;;;;;;;8.82;3.95;;;;;;;1.57;100.00;99326.56;5133001;28;20051;-64
2022/03/03 07:34:01;;;;;;;5.95;4.03;;;;;;;1.49;100.00;99317.22;5125867;28;20056;-65
2022/03/03 07:36:32;;;;;;;7.47;3.92;;;;;;;1.42;100.00;99304.13;5112199;28;20054;-65
2022/03/03 07:39:00;;;;;;;6.53;4.05;;;;;;;1.45;100.00;99315.44;5111900;28;20043;-65
2022/03/03 07:41:28;;;;;;;10.70;3.55;;;;;;;1.37;100.00;99309.66;5119092;27;20050;-65
2022/03/03 07:43:57;;;;;;;7.03;3.20;;;;;;;1.45;100.00;99312.75;5132560;28;20918;-64
2022/03/03 07:46:25;;;;;;;6.60;3.92;;;;;;;1.56;100.00;99317.63;5132323;28;20043;-65
2022/03/03 07:48:53;;;;;;;9.70;3.80;;;;;;;1.46;100.00;99312.44;5117150;28;20052;-65
2022/03/03 07:51:20;;;;;;;8.32;3.80;;;;;;;1.50;100.00;99316.16;5111860;28;20472;-63
2022/03/03 07:53:47;;;;;;;9.43;3.80;;;;;;;1.63;100.00;99328.03;5112298;28;20101;-63
2022/03/03 07:56:20;;;;;;;10.65;3.33;;;;;;;1.83;100.00;99321.41;5111541;28;20192;-64
2022/03/03 07:58:48;;;;;;;7.25;3.53;;;;;;;1.99;100.00;99322.69;5122579;27;20080;-64
2022/03/03 08:01:17;;;;;;;7.80;3.38;;;;;;;2.12;100.00;99312.94;5131612;28;20425;-64
2022/03/03 08:03:46;;;;;;;7.70;3.53;;;;;;;2.17;100.00;99306.63;5131787;28;20533;-64
2022/03/03 08:06:15;;;;;;;10.38;3.25;;;;;;;2.24;100.00;99294.28;5131766;28;20054;-64
2022/03/03 08:08:42;;;;;;;7.05;3.30;;;;;;;2.30;100.00;99282.22;5128195;28;20051;-64
2022/03/03 08:11:10;;;;;;;8.27;3.47;;;;;;;2.34;100.00;99269.69;5111162;28;20067;-64
2022/03/03 08:13:37;;;;;;;6.57;3.20;;;;;;;2.33;100.00;99245.63;5111246;28;20607;-64
2022/03/03 08:16:04;;;;;;;8.90;3.33;;;;;;;2.15;100.00;99204.16;5111267;28;20048;-64
2022/03/03 08:18:35;;;;;;;10.70;4.38;;;;;;;2.04;100.00;99184.66;5111364;28;20491;-64
2022/03/03 08:21:02;;;;;;;6.90;3.97;;;;;;;2.02;100.00;99167.16;5127838;28;20565;-64
2022/03/03 08:23:30;;;;;;;7.45;3.88;;;;;;;2.04;100.00;99181.97;5131919;28;20082;-64
2022/03/03 08:25:57;;;;;;;6.68;3.70;;;;;;;2.01;100.00;99171.75;5131908;28;20055;-64
2022/03/03 08:28:24;;;;;;;6.80;3.78;;;;;;;1.94;100.00;99162.50;5131649;28;20387;-63
2022/03/03 08:30:56;;;;;;;8.23;4.38;;;;;;;1.94;100.00;99174.09;5111257;28;20054;-63
2022/03/03 08:33:35;;;;;;;8.30;4.95;;;;;;;2.04;100.00;99194.69;5110925;28;20061;-64
2022/03/03 08:36:06;;;;;;;9.25;4.88;;;;;;;2.19;100.00;99199.72;5110479;28;20048;-63
2022/03/03 08:38:34;;;;;;;7.93;5.43;;;;;;;2.22;100.00;99185.56;5110630;28;20096;-62
2022/03/03 08:41:03;;;;;;;11.77;6.07;;;;;;;2.21;100.00;99145.31;5131338;28;20057;-62
2022/03/03 08:43:32;;;;;;;8.02;4.50;;;;;;;2.22;100.00;99133.38;5131314;28;20043;-62
2022/03/03 08:46:05;;;;;;;7.88;4.85;;;;;;;2.27;100.00;99123.25;5131219;28;20421;-64
2022/03/03 08:48:33;;;;;;;6.10;4.60;;;;;;;2.29;100.00;99122.91;5131231;28;20055;-66
2022/03/03 08:51:01;;;;;;;10.60;4.68;;;;;;;2.40;100.00;99118.84;5130873;28;20051;-66
2022/03/03 08:53:28;;;;;;;8.90;4.82;;;;;;;2.45;100.00;99090.84;5131154;28;20051;-64
2022/03/03 08:55:54;;;;;;;6.60;4.28;;;;;;;2.40;100.00;99056.63;5130776;28;20429;-63
2022/03/03 08:58:21;;;;;;;8.45;4.93;;;;;;;2.30;100.00;99029.81;5131025;28;20104;-63
2022/03/03 09:00:49;;;;;;;11.23;4.93;;;;;;;2.34;100.00;99049.75;5120243;28;20058;-60
2022/03/03 09:03:18;;;;;;;5.97;4.32;;;;;;;2.26;100.00;99026.16;5110797;28;20151;-65
2022/03/03 09:05:44;;;;;;;12.65;4.55;;;;;;;2.40;100.00;99044.97;5110495;28;20524;-64
2022/03/03 09:08:11;;;;;;;9.88;4.78;;;;;;;2.73;100.00;99048.09;5110519;28;20536;-64
2022/03/03 09:10:38;;;;;;;6.30;4.53;;;;;;;2.99;100.00;99034.59;5109645;27;20047;-65
2022/03/03 09:13:04;;;;;;;10.80;5.43;;;;;;;3.27;100.00;98978.19;5110250;28;20052;-66
2022/03/03 09:15:30;;;;;;;9.73;5.47;;;;;;;3.59;100.00;98966.00;5110267;28;20054;-65
2022/03/03 09:17:57;;;;;;;8.20;5.30;;;;;;;3.64;100.00;98829.50;5110072;28;20556;-66
2022/03/03 09:20:23;;;;;;;20.83;12.13;;;;;;;3.72;100.00;98761.66;5116251;28;20123;-64
2022/03/03 09:22:49;;;;;;;29.25;17.67;;;;;;;3.85;100.00;98764.47;5130072;28;20517;-66
2022/03/03 09:25:16;;;;;;;9.73;5.65;;;;;;;4.14;100.00;98807.81;5123741;28;20053;-66
2022/03/03 09:27:43;;;;;;;10.88;6.10;;;;;;;4.49;100.00;98697.00;5109547;28;20047;-66
2022/03/03 09:30:10;;;;;;;9.85;5.15;;;;;;;4.44;100.00;98533.59;5110047;28;20057;-66
2022/03/03 09:32:38;;;;;;;14.02;6.53;;;;;;;4.45;100.00;98470.03;5109615;28;20052;-65
2022/03/03 09:35:05;;;;;;;8.35;5.43;;;;;;;4.57;100.00;98493.69;5115142;28;20047;-67
2022/03/03 09:37:31;;;;;;;8.85;5.28;;;;;;;4.45;100.00;98391.31;5129446;28;20047;-68
2022/03/03 09:39:58;;;;;;;15.20;6.15;;;;;;;4.55;100.00;98339.28;5130110;28;20050;-69
2022/03/03 09:42:31;;;;;;;10.38;5.88;;;;;;;4.44;100.00;98300.97;5129872;28;20137;-68
2022/03/03 09:44:58;;;;;;;7.47;5.75;;;;;;;4.75;100.00;98295.97;5125736;28;20142;-65
2022/03/03 09:47:25;;;;;;;8.05;5.38;;;;;;;4.78;100.00;98265.44;5109307;28;20521;-65
2022/03/03 09:49:51;;;;;;;9.35;5.82;;;;;;;4.95;100.00;98254.22;5109429;28;20059;-67
2022/03/03 09:52:19;;;;;;;10.73;5.78;;;;;;;5.22;100.00;98257.22;5109476;28;20402;-67
2022/03/03 09:54:48;;;;;;;19.23;6.78;;;;;;;5.50;100.00;98320.41;5111013;28;20053;-68
2022/03/03 09:57:15;;;;;;;11.27;6.10;;;;;;;5.66;100.00;98304.88;5128096;28;20054;-68
2022/03/03 09:59:42;;;;;;;9.52;6.00;;;;;;;5.94;100.00;98205.25;5129681;28;20067;-69
2022/03/03 10:02:09;;;;;;;13.50;6.65;;;;;;;6.19;100.00;98197.59;5129375;28;20467;-70
2022/03/03 10:04:35;;;;;;;11.55;5.88;;;;;;;6.35;100.00;98075.78;5111742;28;20073;-70
2022/03/03 10:07:06;;;;;;;9.63;5.93;;;;;;;6.50;100.00;98079.56;5109172;28;20048;-67
2022/03/03 10:09:33;;;;;;;14.30;5.85;;;;;;;6.56;100.00;98034.50;5108736;28;20112;-67
2022/03/03 10:12:01;;;;;;;11.48;6.80;;;;;;;6.29;100.00;97973.81;5108801;28;20051;-67
2022/03/03 10:14:30;;;;;;;18.92;7.75;;;;;;;6.23;100.00;98029.69;5128507;27;20047;-70
2022/03/03 10:16:57;;;;;;;11.30;7.00;;;;;;;6.05;100.00;98049.22;5128611;28;20055;-67
2022/03/03 10:19:23;;;;;;;17.27;7.93;;;;;;;6.01;100.00;98081.03;5128971;28;20055;-68
2022/03/03 10:21:50;;;;;;;13.38;7.70;;;;;;;5.95;100.00;98059.94;5129838;27;20426;-67
2022/03/03 10:24:21;;;;;;;16.00;8.77;;;;;;;6.08;100.00;98066.78;5130409;28;20134;-64
2022/03/03 10:26:56;;;;;;;13.30;7.90;;;;;;;6.01;100.00;98051.09;5112527;28;20048;-69
2022/03/03 10:29:23;;;;;;;8.90;5.80;;;;;;;5.77;100.00;97995.09;5112596;28;20059;-72
2022/03/03 10:31:52;;;;;;;11.13;6.10;;;;;;;5.82;100.00;97945.03;5112429;28;20051;-65
2022/03/03 10:34:20;;;;;;;15.10;6.55;;;;;;;5.87;100.00;97942.81;5114198;28;20070;-66
2022/03/03 10:36:56;;;;;;;10.88;6.25;;;;;;;6.00;100.00;97929.03;5133929;28;20539;-67
2022/03/03 10:39:23;;;;;;;16.65;7.25;;;;;;;5.99;100.00;97920.09;5132928;28;20057;-68
2022/03/03 10:41:55;;;;;;;14.93;7.43;;;;;;;5.90;100.00;97957.63;5133212;28;20563;-69
2022/03/03 10:44:23;;;;;;;11.70;6.97;;;;;;;5.90;100.00;97963.06;5127197;28;20097;-69
2022/03/03 10:47:05;;;;;;;12.63;7.03;;;;;;;6.06;100.00;97965.66;5112612;28;20044;-70
2022/03/03 10:49:31;;;;;;;12.82;6.80;;;;;;;6.45;100.00;97949.16;5112358;28;20055;-66
2022/03/03 10:52:14;;;;;;;10.98;6.13;;;;;;;6.67;100.00;97902.03;5112392;28;20048;-71
2022/03/03 10:54:55;;;;;;;11.25;6.60;;;;;;;6.41;100.00;97891.94;5120488;28;20858;-64
2022/03/03 10:57:38;;;;;;;9.95;6.07;;;;;;;6.38;100.00;97900.84;5132607;28;20469;-61
2022/03/03 11:00:09;;;;;;;12.10;6.43;;;;;;;6.51;100.00;97894.03;5133102;28;20112;-62
2022/03/03 11:02:37;;;;;;;10.10;6.15;;;;;;;6.67;100.00;97896.56;5132743;28;20175;-69
2022/03/03 11:05:05;;;;;;;11.57;6.40;;;;;;;6.77;100.00;97895.94;5134369;27;20053;-63
2022/03/03 11:07:34;;;;;;;13.25;6.38;;;;;;;6.72;100.00;97900.91;5116751;28;20130;-68
2022/03/03 11:10:00;;;;;;;10.57;6.40;;;;;;;6.82;100.00;97897.53;5111892;28;20059;-65
2022/03/03 11:12:27;;;;;;;11.35;6.82;;;;;;;7.01;100.00;97889.19;5112056;28;20422;-66
2022/03/03 11:14:55;;;;;;;9.70;5.70;;;;;;;7.02;100.00;97939.81;5114403;28;20051;-65
2022/03/03 11:17:22;;;;;;;11.15;5.38;;;;;;;7.01;100.00;97949.16;5132418;28;20055;-68
2022/03/03 11:19:50;;;;;;;10.23;5.53;;;;;;;7.11;100.00;98004.16;5132351;28;20100;-66
2022/03/03 11:22:17;;;;;;;8.63;5.47;;;;;;;6.95;100.00;98045.22;5132669;28;20453;-67
2022/03/03 11:24:45;;;;;;;11.07;5.78;;;;;;;6.72;100.00;98103.25;5131612;28;20534;-68
2022/03/03 11:27:12;;;;;;;14.25;5.22;;;;;;;6.47;100.00;98113.72;5112190;28;20055;-66
2022/03/03 11:29:38;;;;;;;8.80;5.72;;;;;;;6.32;100.00;98081.97;5111797;28;20047;-66
2022/03/03 11:32:07;;;;;;;11.65;5.53;;;;;;;6.24;100.00;98088.44;5111777;28;20044;-66
2022/03/03 11:34:43;;;;;;;11.07;4.97;;;;;;;6.11;100.00;98053.22;5111973;27;20043;-61